createdAt,value
2022-08-31T00:02:51.940Z,5.97
2022-08-31T00:06:36.249Z,6.60
2022-08-31T00:10:31.608Z,6.00
2022-08-31T00:14:15.343Z,5.30
2022-08-31T00:18:01.317Z,5.82
2022-08-31T00:21:44.715Z,5.90
2022-08-31T00:25:27.415Z,5.93
2022-08-31T00:29:10.616Z,7.18
2022-08-31T00:36:37.129Z,6.53
2022-08-31T00:40:20.163Z,6.40
2022-08-31T00:47:47.112Z,5.78
2022-08-31T00:51:31.272Z,5.83
2022-08-31T00:55:19.138Z,4.95
2022-08-31T00:59:01.769Z,6.05
2022-08-31T01:02:44.682Z,6.78
2022-08-31T01:10:11.526Z,5.68
2022-08-31T01:13:55.864Z,5.82
2022-08-31T01:17:39.468Z,6.32
2022-08-31T01:21:29.589Z,6.63
2022-08-31T01:25:15.317Z,6.40
2022-08-31T01:29:01.639Z,6.45
2022-08-31T01:32:44.585Z,5.70
2022-08-31T01:36:29.383Z,6.43
2022-08-31T01:40:14.127Z,6.28
2022-08-31T01:43:57.143Z,5.95
2022-08-31T01:47:39.742Z,6.07
2022-08-31T01:51:23.333Z,6.05
2022-08-31T01:55:07.217Z,5.47
2022-08-31T01:58:51.689Z,5.78
2022-08-31T02:02:34.413Z,5.07
2022-08-31T02:06:16.938Z,5.43
2022-08-31T02:09:59.842Z,6.57
2022-08-31T02:13:43.611Z,5.18
2022-08-31T02:17:27.661Z,5.65
2022-08-31T02:21:10.255Z,5.40
2022-08-31T02:24:52.892Z,5.32
2022-08-31T02:28:35.774Z,5.03
2022-08-31T02:32:20.260Z,4.30
2022-08-31T02:36:05.766Z,4.38
2022-08-31T02:39:48.768Z,4.85
2022-08-31T02:43:33.709Z,5.43
2022-08-31T02:47:16.223Z,5.43
2022-08-31T02:51:06.554Z,4.88
2022-08-31T02:54:49.225Z,5.28
2022-08-31T02:58:31.916Z,5.07
2022-08-31T03:02:14.872Z,5.30
2022-08-31T03:09:41.726Z,5.45
2022-08-31T03:13:26.374Z,5.45
2022-08-31T03:17:09.218Z,5.75
2022-08-31T03:20:52.236Z,5.30
2022-08-31T03:24:34.795Z,5.30
2022-08-31T03:28:18.733Z,5.65
2022-08-31T03:32:02.628Z,5.45
2022-08-31T03:35:46.126Z,5.13
2022-08-31T03:39:28.733Z,5.30
2022-08-31T03:43:12.229Z,5.53
2022-08-31T03:46:56.745Z,5.80
2022-08-31T03:50:40.329Z,5.70
2022-08-31T03:54:23.395Z,5.35
2022-08-31T03:58:09.593Z,6.50
2022-08-31T04:01:52.169Z,5.20
2022-08-31T04:05:38.320Z,5.75
2022-08-31T04:09:21.169Z,5.90
2022-08-31T04:13:03.791Z,5.60
2022-08-31T04:16:47.644Z,6.00
2022-08-31T04:20:30.391Z,5.72
2022-08-31T04:24:15.075Z,5.90
2022-08-31T04:27:58.228Z,6.13
2022-08-31T04:31:41.088Z,5.40
2022-08-31T04:35:23.688Z,5.20
2022-08-31T04:39:07.719Z,5.57
2022-08-31T04:42:51.860Z,5.00
2022-08-31T04:46:37.518Z,4.65
2022-08-31T04:50:20.602Z,5.22
2022-08-31T04:54:04.666Z,4.57
2022-08-31T04:57:47.166Z,4.88
2022-08-31T05:01:42.831Z,4.95
2022-08-31T05:05:26.101Z,5.10
2022-08-31T05:09:11.655Z,5.72
2022-08-31T05:12:54.408Z,4.95
2022-08-31T05:16:40.895Z,4.65
2022-08-31T05:20:23.708Z,6.03
2022-08-31T05:24:09.238Z,6.13
2022-08-31T05:27:53.412Z,5.47
2022-08-31T05:31:39.379Z,5.78
2022-08-31T05:35:21.764Z,5.82
2022-08-31T05:39:06.293Z,5.97
2022-08-31T05:42:48.940Z,6.75
2022-08-31T05:46:31.551Z,7.07
2022-08-31T05:50:15.747Z,7.28
2022-08-31T05:53:59.932Z,6.88
2022-08-31T05:57:43.008Z,7.20
2022-08-31T06:01:30.455Z,7.93
2022-08-31T06:05:13.549Z,7.28
2022-08-31T06:08:58.697Z,7.88
2022-08-31T06:12:42.357Z,7.50
2022-08-31T06:16:26.299Z,7.93
2022-08-31T06:20:15.401Z,8.02
2022-08-31T06:24:03.260Z,8.70
2022-08-31T06:27:50.507Z,10.43
2022-08-31T06:31:37.033Z,11.23
2022-08-31T06:35:19.456Z,13.40
2022-08-31T06:39:05.212Z,13.25
2022-08-31T06:42:47.753Z,12.30
2022-08-31T06:46:33.214Z,13.73
2022-08-31T06:50:15.997Z,12.30
2022-08-31T06:54:11.363Z,13.30
2022-08-31T06:58:02.403Z,12.73
2022-08-31T07:01:45.286Z,14.85
2022-08-31T07:05:28.017Z,13.43
2022-08-31T07:09:12.952Z,13.75
2022-08-31T07:12:55.773Z,14.30
2022-08-31T07:16:40.764Z,14.02
2022-08-31T07:20:23.802Z,13.48
2022-08-31T07:27:50.415Z,13.82
2022-08-31T07:31:44.694Z,18.30
2022-08-31T07:35:30.000Z,12.88
2022-08-31T07:39:30.433Z,13.00
2022-08-31T07:43:12.980Z,12.82
2022-08-31T07:46:55.961Z,13.15
2022-08-31T07:50:46.628Z,12.10
2022-08-31T07:54:29.440Z,12.77
2022-08-31T07:58:13.388Z,12.13
2022-08-31T08:01:56.589Z,14.13
2022-08-31T08:05:41.890Z,12.80
2022-08-31T08:09:25.512Z,11.10
2022-08-31T08:13:09.081Z,11.63
2022-08-31T08:16:52.451Z,12.20
2022-08-31T08:20:38.444Z,11.55
2022-08-31T08:24:22.956Z,10.23
2022-08-31T08:28:22.738Z,10.68
2022-08-31T08:32:12.273Z,11.93
2022-08-31T08:36:00.461Z,10.27
2022-08-31T08:39:44.692Z,9.43
2022-08-31T08:43:31.314Z,10.20
2022-08-31T08:47:19.042Z,8.85
2022-08-31T08:51:07.013Z,9.75
2022-08-31T08:54:53.352Z,9.18
2022-08-31T08:58:36.199Z,9.25
2022-08-31T09:02:22.495Z,8.60
2022-08-31T09:06:09.909Z,8.93
2022-08-31T09:10:02.243Z,8.35
2022-08-31T09:13:55.458Z,8.35
2022-08-31T09:17:47.926Z,8.45
2022-08-31T09:21:34.458Z,9.90
2022-08-31T09:25:20.963Z,9.73
2022-08-31T09:29:04.574Z,10.48
2022-08-31T09:32:56.969Z,10.65
2022-08-31T09:36:41.867Z,11.13
2022-08-31T09:40:37.961Z,11.00
2022-08-31T09:44:34.338Z,11.75
2022-08-31T09:48:44.354Z,12.77
2022-08-31T09:52:48.245Z,12.80
2022-08-31T09:56:30.823Z,12.40
2022-08-31T10:00:16.660Z,11.07
2022-08-31T10:04:27.317Z,10.85
2022-08-31T10:08:31.856Z,10.70
2022-08-31T10:12:22.769Z,10.43
2022-08-31T10:16:14.563Z,10.55
2022-08-31T10:20:06.370Z,9.70
2022-08-31T10:23:57.517Z,9.82
2022-08-31T10:27:44.464Z,10.57
2022-08-31T10:31:34.251Z,9.90
2022-08-31T10:35:22.241Z,10.85
2022-08-31T10:39:11.826Z,9.82
2022-08-31T10:43:05.149Z,9.48
2022-08-31T10:46:50.310Z,9.43
2022-08-31T10:50:45.124Z,9.82
2022-08-31T10:54:40.260Z,8.60
2022-08-31T10:58:33.864Z,9.43
2022-08-31T11:02:41.728Z,9.30
2022-08-31T11:06:34.630Z,8.65
2022-08-31T11:10:27.817Z,8.57
2022-08-31T11:14:48.478Z,9.13
2022-08-31T11:19:11.973Z,8.93
2022-08-31T11:23:29.872Z,8.93
2022-08-31T11:27:23.440Z,9.57
2022-08-31T11:31:14.702Z,9.60
2022-08-31T11:35:01.121Z,10.30
2022-08-31T11:38:52.115Z,9.75
2022-08-31T11:43:01.374Z,9.70
2022-08-31T11:47:06.775Z,10.48
2022-08-31T11:51:07.317Z,10.13
2022-08-31T11:55:14.719Z,9.15
2022-08-31T11:59:20.636Z,10.60
2022-08-31T12:03:09.507Z,9.70
2022-08-31T12:07:11.063Z,10.00
2022-08-31T12:11:03.300Z,8.85
2022-08-31T12:14:51.934Z,11.27
2022-08-31T12:18:50.809Z,9.95
2022-08-31T12:23:29.833Z,10.00
2022-08-31T12:27:31.686Z,10.13
2022-08-31T12:31:18.824Z,10.13
2022-08-31T12:35:12.801Z,10.63
2022-08-31T12:39:08.441Z,10.50
2022-08-31T12:43:01.194Z,12.02
2022-08-31T12:46:59.650Z,11.18
2022-08-31T12:50:47.834Z,10.95
2022-08-31T12:55:05.646Z,10.90
2022-08-31T12:59:05.732Z,10.10
2022-08-31T13:02:50.901Z,10.15
2022-08-31T13:06:36.978Z,10.32
2022-08-31T13:10:29.357Z,9.10
2022-08-31T13:14:18.203Z,8.70
2022-08-31T13:18:02.388Z,9.43
2022-08-31T13:21:50.782Z,9.27
2022-08-31T13:25:36.863Z,9.43
2022-08-31T13:29:25.044Z,9.60
2022-08-31T13:33:23.236Z,8.77
2022-08-31T13:37:14.272Z,9.82
2022-08-31T13:40:56.895Z,10.25
2022-08-31T13:48:31.772Z,8.90
2022-08-31T13:52:18.681Z,10.80
2022-08-31T13:56:01.528Z,9.52
2022-08-31T13:59:45.662Z,9.20
2022-08-31T14:03:41.020Z,8.98
2022-08-31T14:07:25.574Z,9.55
2022-08-31T14:11:14.090Z,8.30
2022-08-31T14:14:59.464Z,8.80
2022-08-31T14:18:45.109Z,9.40
2022-08-31T14:22:30.524Z,8.65
2022-08-31T14:26:15.859Z,8.27
2022-08-31T14:30:02.297Z,9.55
2022-08-31T14:33:48.006Z,8.75
2022-08-31T14:37:31.722Z,8.85
2022-08-31T14:41:18.669Z,8.82
2022-08-31T14:45:05.113Z,8.10
2022-08-31T14:48:47.875Z,7.68
2022-08-31T14:52:30.489Z,7.97
2022-08-31T14:56:25.091Z,8.32
2022-08-31T15:00:12.969Z,7.00
2022-08-31T15:03:55.623Z,9.00
2022-08-31T15:07:40.326Z,8.70
2022-08-31T15:11:22.929Z,8.65
2022-08-31T15:15:07.607Z,8.85
2022-08-31T15:18:54.271Z,8.38
2022-08-31T15:22:40.527Z,8.30
2022-08-31T15:26:23.741Z,9.82
2022-08-31T15:34:09.986Z,8.55
2022-08-31T15:37:58.634Z,10.80
2022-08-31T15:41:42.293Z,8.77
2022-08-31T15:45:29.931Z,9.13
2022-08-31T15:49:19.287Z,10.23
2022-08-31T15:53:09.947Z,11.63
2022-08-31T15:56:55.818Z,11.13
2022-08-31T16:00:41.804Z,11.15
2022-08-31T16:04:25.936Z,12.05
2022-08-31T16:08:10.779Z,10.80
2022-08-31T16:11:56.152Z,10.85
2022-08-31T16:15:39.552Z,11.13
2022-08-31T16:19:35.086Z,10.10
2022-08-31T16:23:21.001Z,9.32
2022-08-31T16:27:06.322Z,10.32
2022-08-31T16:30:57.266Z,10.65
2022-08-31T16:34:42.591Z,10.27
2022-08-31T16:38:26.835Z,10.85
2022-08-31T16:42:11.239Z,9.57
2022-08-31T16:45:54.088Z,9.85
2022-08-31T16:49:40.358Z,10.38
2022-08-31T16:53:26.401Z,10.07
2022-08-31T16:57:23.920Z,10.95
2022-08-31T17:01:16.095Z,10.63
2022-08-31T17:05:05.229Z,9.93
2022-08-31T17:08:49.009Z,10.23
2022-08-31T17:12:33.804Z,9.75
2022-08-31T17:16:23.916Z,10.38
2022-08-31T17:20:08.494Z,9.98
2022-08-31T17:23:57.496Z,10.45
2022-08-31T17:27:47.790Z,10.88
2022-08-31T17:31:46.070Z,10.38
2022-08-31T17:35:31.976Z,10.15
2022-08-31T17:39:16.772Z,10.25
2022-08-31T17:43:02.168Z,9.98
2022-08-31T17:50:28.000Z,11.40
2022-08-31T17:54:13.501Z,12.50
2022-08-31T17:57:57.144Z,12.88
2022-08-31T18:01:41.778Z,10.82
2022-08-31T18:05:24.350Z,11.65
2022-08-31T18:09:07.209Z,12.20
2022-08-31T18:12:49.934Z,12.55
2022-08-31T18:16:33.242Z,12.90
2022-08-31T18:20:17.749Z,12.02
2022-08-31T18:24:00.597Z,11.57
2022-08-31T18:27:43.490Z,13.30
2022-08-31T18:31:30.421Z,12.68
2022-08-31T18:35:14.189Z,13.13
2022-08-31T18:39:00.398Z,14.23
2022-08-31T18:43:00.409Z,14.90
2022-08-31T18:46:43.449Z,14.45
2022-08-31T18:54:19.544Z,16.10
2022-08-31T18:58:02.289Z,15.65
2022-08-31T19:01:45.666Z,16.58
2022-08-31T19:09:13.258Z,17.60
2022-08-31T19:12:57.474Z,16.13
2022-08-31T19:16:39.921Z,19.13
2022-08-31T19:20:22.810Z,19.15
2022-08-31T19:24:10.049Z,18.73
2022-08-31T19:27:52.876Z,19.30
2022-08-31T19:31:39.249Z,22.10
2022-08-31T19:35:22.319Z,22.23
2022-08-31T19:39:05.550Z,26.08
2022-08-31T19:46:52.683Z,28.73
2022-08-31T19:50:41.484Z,29.63
2022-08-31T19:54:26.054Z,28.83
2022-08-31T19:58:08.785Z,30.00
2022-08-31T20:01:55.597Z,30.38
2022-08-31T20:05:43.374Z,30.35
2022-08-31T20:09:27.456Z,29.40
2022-08-31T20:13:15.000Z,29.15
2022-08-31T20:17:00.452Z,27.40
2022-08-31T20:20:46.065Z,27.63
2022-08-31T20:24:29.138Z,26.33
2022-08-31T20:28:12.370Z,27.83
2022-08-31T20:39:32.198Z,29.25
2022-08-31T20:43:15.999Z,29.50
2022-08-31T20:47:18.480Z,28.25
2022-08-31T20:51:16.104Z,28.98
2022-08-31T20:55:01.624Z,30.00
2022-08-31T20:58:45.090Z,29.77
2022-08-31T21:02:29.283Z,28.48
2022-08-31T21:06:13.340Z,29.33
2022-08-31T21:09:55.865Z,29.58
2022-08-31T21:13:38.412Z,30.87
2022-08-31T21:17:21.926Z,31.25
2022-08-31T21:21:08.226Z,30.95
2022-08-31T21:24:52.619Z,29.23
2022-08-31T21:28:38.457Z,30.02
2022-08-31T21:32:21.331Z,29.08
2022-08-31T21:36:06.917Z,24.88
2022-08-31T21:39:49.485Z,22.13
2022-08-31T21:43:33.559Z,21.55
2022-08-31T21:47:16.432Z,22.23
2022-08-31T21:50:59.553Z,20.83
2022-08-31T21:54:44.733Z,19.67
2022-08-31T21:58:27.202Z,18.48
2022-08-31T22:02:13.845Z,18.50
2022-08-31T22:05:56.742Z,16.98
2022-08-31T22:09:39.585Z,16.15
2022-08-31T22:13:22.346Z,14.27
2022-08-31T22:17:07.717Z,12.00
2022-08-31T22:20:52.237Z,12.52
2022-08-31T22:24:36.836Z,10.88
2022-08-31T22:28:21.870Z,10.45
2022-08-31T22:32:08.641Z,10.38
2022-08-31T22:53:00.076Z,8.27
2022-08-31T22:56:42.774Z,8.38
2022-08-31T23:00:26.052Z,9.25
2022-08-31T23:07:51.923Z,8.02
2022-08-31T23:11:36.513Z,8.77
2022-08-31T23:15:21.547Z,8.55
2022-08-31T23:19:12.023Z,9.00
2022-08-31T23:22:55.415Z,8.23
2022-08-31T23:26:40.542Z,8.85
2022-08-31T23:30:25.585Z,8.77
2022-08-31T23:34:13.235Z,9.57
2022-08-31T23:37:55.953Z,8.93
2022-08-31T23:41:40.141Z,8.85
2022-08-31T23:45:22.953Z,8.70
2022-08-31T23:49:09.113Z,9.50
2022-08-31T23:52:53.169Z,9.77
2022-08-31T23:56:38.750Z,8.82
